createdAt,value
2023-05-20T00:01:33.922Z,20.58
2023-05-20T00:04:01.042Z,17.35
2023-05-20T00:06:29.232Z,19.55
2023-05-20T00:09:01.315Z,18.13
2023-05-20T00:11:28.292Z,18.23
2023-05-20T00:13:57.641Z,16.58
2023-05-20T00:16:26.699Z,17.83
2023-05-20T00:18:53.806Z,17.77
2023-05-20T00:21:25.739Z,16.70
2023-05-20T00:23:56.353Z,16.27
2023-05-20T00:26:32.431Z,17.25
2023-05-20T00:28:59.219Z,16.17
2023-05-20T00:31:29.186Z,18.50
2023-05-20T00:33:58.496Z,17.10
2023-05-20T00:36:29.967Z,17.15
2023-05-20T00:38:56.976Z,17.02
2023-05-20T00:41:26.927Z,18.10
2023-05-20T00:43:55.115Z,17.88
2023-05-20T00:46:35.633Z,17.98
2023-05-20T00:49:02.944Z,17.85
2023-05-20T00:51:33.677Z,17.85
2023-05-20T00:54:01.568Z,17.95
2023-05-20T00:56:30.824Z,18.27
2023-05-20T00:59:07.689Z,18.42
2023-05-20T01:01:41.031Z,16.52
2023-05-20T01:04:07.941Z,16.30
2023-05-20T01:06:35.023Z,17.02
2023-05-20T01:09:01.899Z,17.38
2023-05-20T01:11:37.131Z,18.27
2023-05-20T01:14:07.889Z,17.17
2023-05-20T01:16:36.248Z,17.60
2023-05-20T01:19:06.896Z,17.20
2023-05-20T01:21:35.897Z,16.58
2023-05-20T01:24:05.867Z,17.25
2023-05-20T01:26:38.423Z,16.70
2023-05-20T01:29:05.544Z,17.33
2023-05-20T01:31:37.510Z,15.70
2023-05-20T01:34:05.751Z,16.80
2023-05-20T01:36:33.882Z,15.52
2023-05-20T01:39:03.066Z,17.40
2023-05-20T01:41:31.188Z,18.80
2023-05-20T01:43:58.112Z,17.90
2023-05-20T01:46:26.803Z,17.25
2023-05-20T01:48:56.442Z,17.50
2023-05-20T01:51:23.454Z,19.90
2023-05-20T01:53:50.609Z,20.15
2023-05-20T01:56:17.485Z,20.33
2023-05-20T01:58:44.592Z,20.77
2023-05-20T02:01:11.422Z,18.27
2023-05-20T02:03:38.330Z,18.70
2023-05-20T02:06:05.253Z,19.48
2023-05-20T02:08:32.262Z,19.92
2023-05-20T02:11:01.445Z,19.90
2023-05-20T02:13:28.350Z,19.77
2023-05-20T02:15:58.097Z,21.13
2023-05-20T02:18:26.562Z,21.67
2023-05-20T02:21:04.716Z,21.67
2023-05-20T02:23:32.020Z,20.75
2023-05-20T02:26:06.235Z,21.10
2023-05-20T02:28:33.609Z,21.55
2023-05-20T02:31:00.544Z,21.42
2023-05-20T02:33:29.169Z,22.63
2023-05-20T02:35:56.290Z,21.10
2023-05-20T02:38:23.236Z,23.98
2023-05-20T02:40:55.978Z,21.92
2023-05-20T02:43:22.937Z,21.85
2023-05-20T02:45:49.844Z,22.45
2023-05-20T02:48:16.864Z,23.73
2023-05-20T02:50:44.703Z,23.27
2023-05-20T02:53:15.765Z,23.05
2023-05-20T02:55:42.588Z,24.02
2023-05-20T02:58:09.473Z,22.90
2023-05-20T03:00:40.915Z,24.20
2023-05-20T03:03:08.732Z,22.88
2023-05-20T03:05:38.017Z,22.70
2023-05-20T03:08:11.152Z,24.50
2023-05-20T03:10:39.138Z,22.63
2023-05-20T03:13:09.119Z,23.40
2023-05-20T03:15:36.894Z,23.83
2023-05-20T03:18:04.623Z,23.90
2023-05-20T03:20:32.835Z,23.00
2023-05-20T03:22:59.751Z,25.10
2023-05-20T03:25:27.895Z,24.00
2023-05-20T03:27:55.077Z,24.80
2023-05-20T03:30:22.412Z,24.35
2023-05-20T03:32:51.881Z,25.13
2023-05-20T03:35:18.990Z,23.88
2023-05-20T03:37:46.106Z,24.35
2023-05-20T03:40:15.953Z,25.25
2023-05-20T03:42:45.124Z,23.80
2023-05-20T03:45:14.408Z,25.35
2023-05-20T03:47:42.218Z,24.00
2023-05-20T03:50:16.695Z,24.98
2023-05-20T03:52:45.255Z,23.63
2023-05-20T03:55:21.455Z,25.00
2023-05-20T03:57:48.516Z,23.00
2023-05-20T04:00:16.899Z,22.70
2023-05-20T04:02:43.961Z,24.48
2023-05-20T04:05:17.158Z,24.08
2023-05-20T04:07:44.113Z,23.27
2023-05-20T04:10:15.941Z,23.27
2023-05-20T04:12:45.004Z,22.98
2023-05-20T04:15:12.915Z,21.67
2023-05-20T04:17:40.608Z,22.98
2023-05-20T04:20:08.382Z,22.17
2023-05-20T04:22:35.366Z,22.70
2023-05-20T04:25:08.108Z,21.45
2023-05-20T04:27:35.085Z,22.75
2023-05-20T04:30:02.693Z,21.52
2023-05-20T04:32:34.488Z,21.02
2023-05-20T04:35:07.760Z,19.45
2023-05-20T04:37:37.532Z,21.20
2023-05-20T04:40:10.373Z,20.42
2023-05-20T04:42:37.946Z,18.58
2023-05-20T04:45:05.954Z,18.95
2023-05-20T04:47:39.240Z,20.00
2023-05-20T04:50:10.766Z,17.83
2023-05-20T04:52:46.217Z,17.75
2023-05-20T04:55:15.884Z,17.52
2023-05-20T04:57:43.609Z,16.30
2023-05-20T05:00:12.701Z,17.67
2023-05-20T05:02:40.335Z,16.27
2023-05-20T05:05:10.224Z,16.38
2023-05-20T05:07:39.452Z,15.93
2023-05-20T05:10:09.315Z,15.95
2023-05-20T05:12:36.186Z,15.48
2023-05-20T05:15:03.285Z,15.57
2023-05-20T05:17:30.363Z,15.77
2023-05-20T05:19:57.370Z,15.02
2023-05-20T05:22:34.511Z,15.48
2023-05-20T05:25:03.580Z,15.82
2023-05-20T05:27:32.810Z,15.27
2023-05-20T05:29:59.774Z,14.73
2023-05-20T05:32:28.177Z,14.80
2023-05-20T05:34:55.198Z,15.10
2023-05-20T05:37:22.437Z,15.82
2023-05-20T05:39:49.582Z,15.50
2023-05-20T05:42:17.305Z,15.75
2023-05-20T05:44:44.698Z,16.55
2023-05-20T05:47:11.717Z,15.70
2023-05-20T05:49:38.587Z,16.70
2023-05-20T05:52:05.772Z,15.38
2023-05-20T05:54:32.696Z,15.60
2023-05-20T05:57:00.813Z,15.23
2023-05-20T05:59:27.607Z,15.82
2023-05-20T06:01:54.510Z,15.75
2023-05-20T06:04:23.510Z,16.20
2023-05-20T06:06:50.434Z,15.93
2023-05-20T06:09:17.762Z,16.30
2023-05-20T06:11:44.729Z,16.75
2023-05-20T06:14:11.592Z,15.43
2023-05-20T06:16:39.612Z,15.95
2023-05-20T06:19:07.581Z,16.10
2023-05-20T06:21:37.553Z,16.00
2023-05-20T06:24:08.269Z,14.88
2023-05-20T06:26:40.729Z,15.57
2023-05-20T06:29:07.721Z,16.13
2023-05-20T06:31:34.713Z,15.65
2023-05-20T06:34:04.158Z,15.30
2023-05-20T06:36:33.049Z,16.63
2023-05-20T06:39:01.759Z,16.35
2023-05-20T06:41:28.678Z,16.08
2023-05-20T06:43:55.586Z,16.17
2023-05-20T06:46:22.409Z,16.23
2023-05-20T06:48:49.294Z,15.82
2023-05-20T06:51:16.391Z,16.80
2023-05-20T06:53:44.535Z,17.30
2023-05-20T06:56:11.298Z,16.77
2023-05-20T06:58:38.013Z,17.23
2023-05-20T07:01:04.879Z,17.13
2023-05-20T07:03:31.880Z,17.95
2023-05-20T07:05:58.978Z,18.58
2023-05-20T07:08:26.054Z,17.20
2023-05-20T07:10:55.282Z,16.73
2023-05-20T07:13:24.214Z,17.00
2023-05-20T07:15:51.013Z,16.95
2023-05-20T07:18:17.825Z,16.50
2023-05-20T07:20:45.451Z,17.27
2023-05-20T07:23:13.325Z,16.80
2023-05-20T07:25:44.576Z,17.65
2023-05-20T07:28:11.424Z,16.73
2023-05-20T07:30:38.313Z,17.52
2023-05-20T07:33:05.166Z,17.52
2023-05-20T07:35:33.043Z,17.25
2023-05-20T07:38:02.619Z,16.98
2023-05-20T07:40:40.553Z,16.93
2023-05-20T07:43:08.794Z,16.50
2023-05-20T07:45:37.151Z,17.13
2023-05-20T07:48:05.598Z,17.25
2023-05-20T07:50:34.679Z,17.77
2023-05-20T07:53:01.785Z,16.45
2023-05-20T07:55:28.659Z,16.30
2023-05-20T07:57:58.706Z,16.13
2023-05-20T08:00:29.907Z,16.02
2023-05-20T08:02:56.853Z,17.33
2023-05-20T08:05:24.126Z,16.77
2023-05-20T08:07:51.341Z,17.40
2023-05-20T08:10:18.723Z,17.60
2023-05-20T08:12:47.284Z,17.05
2023-05-20T08:15:14.480Z,19.75
2023-05-20T08:17:44.456Z,17.40
2023-05-20T08:20:12.848Z,17.52
2023-05-20T08:22:39.817Z,17.33
2023-05-20T08:25:16.144Z,18.33
2023-05-20T08:27:43.038Z,17.90
2023-05-20T08:30:12.879Z,22.95
2023-05-20T08:32:39.715Z,17.95
2023-05-20T08:35:09.347Z,18.98
2023-05-20T08:37:36.344Z,17.88
2023-05-20T08:40:05.380Z,17.65
2023-05-20T08:42:35.669Z,18.90
2023-05-20T08:47:29.835Z,18.00
2023-05-20T08:49:56.626Z,17.73
2023-05-20T08:52:24.497Z,17.83
2023-05-20T08:54:52.298Z,16.13
2023-05-20T08:57:21.594Z,16.77
2023-05-20T08:59:48.605Z,17.03
2023-05-20T09:02:15.757Z,16.50
2023-05-20T09:04:43.110Z,16.27
2023-05-20T09:07:10.091Z,17.05
2023-05-20T09:09:36.961Z,17.92
2023-05-20T09:12:04.116Z,17.55
2023-05-20T09:14:31.962Z,16.35
2023-05-20T09:16:59.336Z,16.77
2023-05-20T09:19:26.654Z,17.08
2023-05-20T09:21:55.265Z,17.20
2023-05-20T09:24:26.298Z,16.40
2023-05-20T09:26:53.402Z,16.63
2023-05-20T09:29:22.083Z,16.52
2023-05-20T09:31:50.228Z,18.23
2023-05-20T09:34:18.017Z,17.63
2023-05-20T09:36:45.369Z,15.88
2023-05-20T09:39:17.446Z,16.25
2023-05-20T09:42:01.439Z,16.70
2023-05-20T09:44:33.755Z,16.05
2023-05-20T09:47:01.546Z,17.10
2023-05-20T09:49:29.858Z,17.02
2023-05-20T09:51:58.142Z,16.85
2023-05-20T09:54:26.228Z,15.77
2023-05-20T09:56:54.725Z,16.50
2023-05-20T09:59:22.384Z,15.73
2023-05-20T10:01:49.415Z,16.50
2023-05-20T10:04:18.384Z,16.00
2023-05-20T10:07:00.666Z,17.05
2023-05-20T10:10:22.434Z,16.55
2023-05-20T10:13:07.217Z,16.33
2023-05-20T10:15:54.530Z,15.88
2023-05-20T10:18:33.630Z,16.00
2023-05-20T10:21:02.429Z,15.05
2023-05-20T10:23:30.717Z,14.70
2023-05-20T10:25:58.729Z,15.30
2023-05-20T10:28:30.562Z,14.60
2023-05-20T10:30:58.812Z,15.27
2023-05-20T10:33:28.026Z,14.32
2023-05-20T10:35:59.007Z,15.83
2023-05-20T10:38:26.271Z,15.82
2023-05-20T10:40:57.160Z,15.30
2023-05-20T10:43:28.923Z,14.23
2023-05-20T10:45:57.517Z,13.20
2023-05-20T10:48:30.912Z,13.32
2023-05-20T10:51:00.135Z,13.40
2023-05-20T10:53:38.428Z,13.53
2023-05-20T10:56:06.304Z,13.93
2023-05-20T10:58:41.660Z,13.25
2023-05-20T11:01:10.751Z,13.38
2023-05-20T11:03:40.252Z,13.83
2023-05-20T11:06:18.554Z,13.48
2023-05-20T11:08:46.458Z,12.38
2023-05-20T11:11:14.959Z,12.02
2023-05-20T11:13:42.105Z,11.60
2023-05-20T11:16:14.731Z,11.65
2023-05-20T11:18:41.604Z,13.57
2023-05-20T11:21:09.878Z,12.15
2023-05-20T11:23:39.215Z,13.43
2023-05-20T11:26:07.969Z,12.25
2023-05-20T11:28:36.134Z,12.30
2023-05-20T11:31:03.174Z,12.55
2023-05-20T11:33:30.726Z,12.85
2023-05-20T11:35:58.052Z,12.57
2023-05-20T11:38:25.821Z,12.90
2023-05-20T11:40:54.610Z,12.23
2023-05-20T11:43:23.392Z,13.00
2023-05-20T11:45:59.434Z,12.80
2023-05-20T11:48:27.038Z,11.77
2023-05-20T11:50:55.700Z,12.50
2023-05-20T11:53:24.268Z,13.50
2023-05-20T11:56:04.652Z,12.35
2023-05-20T11:58:32.196Z,13.45
2023-05-20T12:01:13.453Z,11.23
2023-05-20T12:03:55.223Z,11.98
2023-05-20T12:06:22.411Z,11.75
2023-05-20T12:09:08.807Z,12.18
2023-05-20T12:11:41.119Z,12.63
2023-05-20T12:14:08.969Z,12.80
2023-05-20T12:16:39.674Z,10.82
2023-05-20T12:19:09.524Z,12.18
2023-05-20T12:21:36.920Z,12.38
2023-05-20T12:24:12.355Z,11.75
2023-05-20T12:26:41.469Z,10.70
2023-05-20T12:29:11.929Z,11.60
2023-05-20T12:31:41.923Z,10.85
2023-05-20T12:36:41.012Z,11.25
2023-05-20T12:39:11.050Z,11.70
2023-05-20T12:41:42.237Z,12.27
2023-05-20T12:44:09.266Z,12.93
2023-05-20T12:46:37.938Z,11.70
2023-05-20T12:49:06.266Z,11.20
2023-05-20T12:51:33.685Z,11.27
2023-05-20T12:54:03.735Z,11.63
2023-05-20T12:56:31.886Z,11.80
2023-05-20T12:58:58.746Z,12.65
2023-05-20T13:01:26.915Z,11.48
2023-05-20T13:03:56.662Z,12.23
2023-05-20T13:06:23.922Z,12.45
2023-05-20T13:08:50.832Z,11.70
2023-05-20T13:11:17.739Z,11.07
2023-05-20T13:13:44.851Z,11.23
2023-05-20T13:16:11.996Z,12.13
2023-05-20T13:18:38.935Z,11.85
2023-05-20T13:21:05.890Z,13.00
2023-05-20T13:23:32.942Z,11.32
2023-05-20T13:25:59.817Z,12.43
2023-05-20T13:28:26.794Z,11.10
2023-05-20T13:30:54.000Z,11.65
2023-05-20T13:33:24.420Z,10.82
2023-05-20T13:35:51.721Z,11.32
2023-05-20T13:38:20.570Z,10.63
2023-05-20T13:40:47.408Z,11.07
2023-05-20T13:43:14.677Z,11.35
2023-05-20T13:45:42.157Z,10.75
2023-05-20T13:48:09.261Z,10.10
2023-05-20T13:50:36.395Z,9.68
2023-05-20T13:53:03.828Z,10.55
2023-05-20T13:55:31.562Z,10.98
2023-05-20T13:57:59.345Z,12.85
2023-05-20T14:00:26.406Z,10.30
2023-05-20T14:02:55.755Z,10.23
2023-05-20T14:05:23.247Z,8.73
2023-05-20T14:07:50.116Z,8.48
2023-05-20T14:10:17.073Z,8.65
2023-05-20T14:12:47.988Z,8.77
2023-05-20T14:15:15.116Z,8.50
2023-05-20T14:17:42.097Z,8.50
2023-05-20T14:20:09.381Z,9.85
2023-05-20T14:22:36.773Z,9.20
2023-05-20T14:25:04.038Z,9.10
2023-05-20T14:27:31.036Z,9.80
2023-05-20T14:29:58.248Z,9.05
2023-05-20T14:32:25.300Z,9.52
2023-05-20T14:34:53.872Z,10.27
2023-05-20T14:37:20.805Z,9.60
2023-05-20T14:39:50.308Z,9.65
2023-05-20T14:42:19.117Z,9.02
2023-05-20T14:44:49.594Z,8.95
2023-05-20T14:47:19.251Z,7.80
2023-05-20T14:49:50.470Z,8.23
2023-05-20T14:52:18.493Z,8.68
2023-05-20T14:54:45.857Z,9.88
2023-05-20T14:57:13.031Z,8.18
2023-05-20T14:59:39.801Z,8.05
2023-05-20T15:02:09.308Z,8.60
2023-05-20T15:04:38.268Z,9.18
2023-05-20T15:07:10.548Z,9.13
2023-05-20T15:09:38.645Z,9.20
2023-05-20T15:12:14.139Z,9.32
2023-05-20T15:14:42.597Z,8.85
2023-05-20T15:17:10.676Z,9.82
2023-05-20T15:19:41.251Z,8.88
2023-05-20T15:22:08.448Z,9.68
2023-05-20T15:24:35.436Z,9.75
2023-05-20T15:27:03.776Z,10.35
2023-05-20T15:29:30.536Z,10.18
2023-05-20T15:31:57.357Z,10.10
2023-05-20T15:34:24.075Z,10.27
2023-05-20T15:36:50.937Z,9.25
2023-05-20T15:39:17.757Z,9.77
2023-05-20T15:41:47.814Z,9.27
2023-05-20T15:44:14.555Z,9.25
2023-05-20T15:46:41.519Z,8.77
2023-05-20T15:49:08.290Z,9.40
2023-05-20T15:51:35.005Z,9.82
2023-05-20T15:54:01.795Z,8.38
2023-05-20T15:56:29.769Z,7.88
2023-05-20T15:58:56.787Z,9.73
2023-05-20T16:01:23.726Z,9.40
2023-05-20T16:03:50.594Z,9.63
2023-05-20T16:06:17.520Z,9.50
2023-05-20T16:08:44.474Z,8.60
2023-05-20T16:11:11.426Z,10.02
2023-05-20T16:13:38.234Z,9.30
2023-05-20T16:16:05.686Z,10.43
2023-05-20T16:18:32.546Z,10.63
2023-05-20T16:21:00.481Z,9.80
2023-05-20T16:23:27.395Z,10.18
2023-05-20T16:25:54.403Z,10.40
2023-05-20T16:28:21.433Z,9.88
2023-05-20T16:30:48.237Z,10.02
2023-05-20T16:33:15.024Z,9.25
2023-05-20T16:35:41.830Z,9.48
2023-05-20T16:38:09.839Z,9.40
2023-05-20T16:40:36.770Z,8.30
2023-05-20T16:43:03.653Z,8.95
2023-05-20T16:45:30.506Z,8.82
2023-05-20T16:47:57.329Z,7.72
2023-05-20T16:50:24.153Z,8.15
2023-05-20T16:52:54.436Z,7.90
2023-05-20T16:55:21.427Z,6.50
2023-05-20T16:57:51.133Z,7.22
2023-05-20T17:00:18.481Z,7.68
2023-05-20T17:02:46.446Z,6.60
2023-05-20T17:05:16.121Z,7.03
2023-05-20T17:07:45.105Z,7.30
2023-05-20T17:10:53.343Z,8.40
2023-05-20T17:13:25.143Z,7.73
2023-05-20T17:15:52.080Z,7.05
2023-05-20T17:18:34.911Z,8.10
2023-05-20T17:21:01.933Z,7.45
2023-05-20T17:23:28.896Z,7.82
2023-05-20T17:25:55.849Z,8.15
2023-05-20T17:28:22.932Z,7.38
2023-05-20T17:31:01.104Z,7.50
2023-05-20T17:33:27.983Z,7.63
2023-05-20T17:35:54.750Z,8.30
2023-05-20T17:38:22.277Z,8.65
2023-05-20T17:40:49.890Z,7.53
2023-05-20T17:43:16.625Z,8.27
2023-05-20T17:45:43.403Z,8.00
2023-05-20T17:48:11.856Z,8.85
2023-05-20T17:50:38.939Z,8.80
2023-05-20T17:53:06.137Z,10.25
2023-05-20T17:55:36.171Z,11.80
2023-05-20T18:00:30.489Z,13.30
2023-05-20T18:03:00.273Z,11.63
2023-05-20T18:05:27.841Z,11.93
2023-05-20T18:07:54.879Z,11.75
2023-05-20T18:10:21.804Z,11.18
2023-05-20T18:12:50.801Z,11.07
2023-05-20T18:15:18.746Z,10.23
2023-05-20T18:17:46.082Z,10.05
2023-05-20T18:20:13.863Z,11.40
2023-05-20T18:22:45.385Z,11.43
2023-05-20T18:25:15.753Z,14.93
2023-05-20T18:27:42.863Z,13.52
2023-05-20T18:30:10.400Z,9.85
2023-05-20T18:32:38.466Z,13.10
2023-05-20T18:35:05.690Z,10.95
2023-05-20T18:37:33.483Z,11.93
2023-05-20T18:40:00.450Z,11.27
2023-05-20T18:42:27.229Z,11.60
2023-05-20T18:44:54.507Z,11.25
2023-05-20T18:47:21.434Z,13.25
2023-05-20T18:49:48.313Z,12.50
2023-05-20T18:52:15.157Z,16.88
2023-05-20T18:54:42.505Z,17.42
2023-05-20T18:57:09.504Z,18.30
2023-05-20T18:59:37.018Z,17.33
2023-05-20T19:02:04.027Z,20.80
2023-05-20T19:04:31.035Z,21.90
2023-05-20T19:06:59.169Z,22.92
2023-05-20T19:09:25.974Z,25.15
2023-05-20T19:11:56.939Z,26.73
2023-05-20T19:14:23.856Z,29.40
2023-05-20T19:16:50.724Z,28.05
2023-05-20T19:19:17.631Z,27.27
2023-05-20T19:21:44.529Z,27.20
2023-05-20T19:24:11.468Z,23.23
2023-05-20T19:26:38.243Z,23.60
2023-05-20T19:29:06.912Z,21.23
2023-05-20T19:31:33.762Z,20.70
2023-05-20T19:34:00.538Z,19.92
2023-05-20T19:36:30.969Z,20.30
2023-05-20T19:38:58.337Z,19.45
2023-05-20T19:41:25.523Z,19.65
2023-05-20T19:43:52.209Z,18.08
2023-05-20T19:46:19.068Z,19.38
2023-05-20T19:48:45.954Z,18.85
2023-05-20T19:51:12.791Z,17.85
2023-05-20T19:53:39.520Z,17.50
2023-05-20T19:56:07.868Z,17.08
2023-05-20T19:58:34.812Z,17.48
2023-05-20T20:01:02.117Z,17.52
2023-05-20T20:03:28.944Z,17.90
2023-05-20T20:05:57.004Z,16.17
2023-05-20T20:08:23.976Z,16.98
2023-05-20T20:10:50.728Z,16.83
2023-05-20T20:13:17.413Z,15.57
2023-05-20T20:15:44.225Z,15.25
2023-05-20T20:18:11.145Z,15.60
2023-05-20T20:20:40.638Z,15.30
2023-05-20T20:23:08.065Z,16.10
2023-05-20T20:25:39.912Z,16.00
2023-05-20T20:28:07.735Z,17.25
2023-05-20T20:30:35.233Z,17.70
2023-05-20T20:33:06.133Z,16.33
2023-05-20T20:35:34.196Z,17.10
2023-05-20T20:38:01.445Z,18.17
2023-05-20T20:40:28.380Z,17.75
2023-05-20T20:42:58.285Z,18.48
2023-05-20T20:45:24.983Z,17.67
2023-05-20T20:47:54.750Z,18.13
2023-05-20T20:50:21.639Z,18.25
2023-05-20T20:52:48.649Z,17.50
2023-05-20T20:55:15.704Z,18.02
2023-05-20T20:57:42.414Z,18.98
2023-05-20T21:00:23.453Z,17.08
2023-05-20T21:02:50.470Z,17.13
2023-05-20T21:05:17.479Z,15.23
2023-05-20T21:07:46.962Z,15.20
2023-05-20T21:10:14.002Z,15.98
2023-05-20T21:12:40.705Z,16.65
2023-05-20T21:15:08.051Z,15.95
2023-05-20T21:17:34.971Z,16.50
2023-05-20T21:20:01.672Z,16.17
2023-05-20T21:22:28.449Z,15.52
2023-05-20T21:24:55.162Z,16.02
2023-05-20T21:27:21.874Z,15.60
2023-05-20T21:29:50.754Z,17.35
2023-05-20T21:32:17.576Z,16.83
2023-05-20T21:34:44.260Z,16.30
2023-05-20T21:37:11.033Z,15.50
2023-05-20T21:39:38.831Z,16.38
2023-05-20T21:42:06.766Z,16.48
2023-05-20T21:44:33.715Z,15.75
2023-05-20T21:47:00.454Z,15.35
2023-05-20T21:49:27.184Z,15.68
2023-05-20T21:51:53.917Z,15.77
2023-05-20T21:54:20.761Z,16.02
2023-05-20T21:56:47.504Z,15.95
2023-05-20T21:59:14.693Z,15.85
2023-05-20T22:01:41.633Z,15.75
2023-05-20T22:04:09.325Z,15.55
2023-05-20T22:06:36.226Z,15.57
2023-05-20T22:09:04.328Z,15.57
2023-05-20T22:11:31.250Z,16.40
2023-05-20T22:13:59.696Z,15.75
2023-05-20T22:16:26.540Z,16.63
2023-05-20T22:18:53.809Z,16.98
2023-05-20T22:21:21.507Z,17.50
2023-05-20T22:23:48.359Z,17.13
2023-05-20T22:26:15.162Z,16.80
2023-05-20T22:28:42.254Z,15.90
2023-05-20T22:31:09.192Z,15.95
2023-05-20T22:33:36.968Z,16.33
2023-05-20T22:36:04.155Z,16.95
2023-05-20T22:38:30.919Z,16.58
2023-05-20T22:40:57.653Z,17.55
2023-05-20T22:43:24.698Z,16.98
2023-05-20T22:46:00.375Z,15.65
2023-05-20T22:48:28.691Z,16.60
2023-05-20T22:51:03.950Z,17.60
2023-05-20T22:53:31.390Z,16.48
2023-05-20T22:55:59.998Z,16.00
2023-05-20T22:58:34.852Z,15.73
2023-05-20T23:01:02.049Z,15.63
2023-05-20T23:03:36.536Z,16.55
2023-05-20T23:06:04.441Z,14.80
2023-05-20T23:08:33.772Z,15.23
2023-05-20T23:11:05.947Z,16.20
2023-05-20T23:13:35.652Z,15.63
2023-05-20T23:16:10.333Z,17.25
2023-05-20T23:18:39.472Z,15.10
2023-05-20T23:21:06.533Z,15.05
2023-05-20T23:23:38.868Z,15.98
2023-05-20T23:26:05.821Z,15.85
2023-05-20T23:28:32.795Z,15.35
2023-05-20T23:30:59.716Z,15.05
2023-05-20T23:33:26.605Z,14.85
2023-05-20T23:35:56.277Z,15.38
2023-05-20T23:38:23.415Z,15.10
2023-05-20T23:40:53.525Z,16.23
2023-05-20T23:43:20.338Z,14.95
2023-05-20T23:45:47.283Z,15.77
2023-05-20T23:48:14.576Z,15.75
2023-05-20T23:50:41.583Z,14.45
2023-05-20T23:53:08.460Z,15.35
2023-05-20T23:55:35.596Z,14.13
2023-05-20T23:58:02.675Z,15.32
